Архив погоды в Арке

Метеограмма Арка
Суббота, 19 Августа
Время местн. Темп Ветер Видим Явления Облачность нижн/средн/верх Атм. давл. Влжн Точка росы ВНГО R Сост. почвы Tg s
Напр Скр Прв ур.ст ур.м изм
01:00 +12.9° Ю-В 1 - более 50 км - облачно 741 759 0 93% +11.8° 600 м - - - -
Пятница, 18 Августа
Время местн. Темп Ветер Видим Явления Облачность нижн/средн/верх Атм. давл. Влжн Точка росы ВНГО R Сост. почвы Tg s
Напр Скр Прв ур.ст ур.м изм
22:00 +14° Ю 2 - более 50 км - облачно 741 759 +0.3 85% +11.5° 600 м - - - -
19:00 +15.4° Ю 2 - более 50 км - облачно 741 759 0 81% +12.1° 1 км 0 - - -
16:00 +16.5° Ю 2 - более 50 км - облачно 741 759 -0.4 77% +12.4° 1 км - - - -
13:00 +16.5° Ю,Ю-В 2 - более 50 км - облачно 742 759 -0.8 77% +12.4° 600 м - - - -
10:00 +15.4° Ю 1 - более 50 км - облачно 742 760 -0.2 79% +11.7° 600 м - - - -
07:00 +13.1° Ю 1 - более 50 км - облачно 743 760 0 94% +12.2° 600 м 0 Сухая (без трещин) +14° -
04:00 +12.8° Ю-В 1 - более 50 км - облачно 743 760 -0.3 93% +11.7° 600 м - - - -
01:00 +13.4° Ю 2 - более 50 км - облачно 743 760 -0.2 89% +11.6° 1 км - - - -
Четверг, 17 Августа
Время местн. Темп Ветер Видим Явления Облачность нижн/средн/верх Атм. давл. Влжн Точка росы ВНГО R Сост. почвы Tg s
Напр Скр Прв ур.ст ур.м изм
22:00 +14.3° Ю 3 - более 50 км - облачно 743 761 +0.1 87% +12.2° 1 км - - - -
19:00 +16° Ю 2 - более 50 км - преимущественно облачно 743 760 -0.7 82% +12.9° 1.5 км 0 - - -
16:00 +17.6° В 1 - более 50 км - облачно 744 761 -0.9 70% +12° 1.5 км - - - -
13:00 +16.5° Ю-В 2 - более 50 км - облачно 744 762 -1 72% +11.5° 1 км - - - -
10:00 +15° Ю 1 - более 50 км небо без изменений {морось} облачно 745 763 -0.3 83% +12.1° 600 м - - - -
07:00 +13.1° Ю-З 1 - 10 км слабая морось с перерывами облачно 746 763 -0.2 95% +12.3° 600 м 0.2 Влажная (без луж) +14° -
04:00 +12.8° штиль 0 - более 50 км - облачно 746 764 -0.3 96% +12.1° 600 м - - - -
01:00 +13.5° Ю 1 - более 50 км - облачно 746 764 0 89% +11.7° 600 м - - - -
Среда, 16 Августа
Время местн. Темп Ветер Видим Явления Облачность нижн/средн/верх Атм. давл. Влжн Точка росы ВНГО R Сост. почвы Tg s
Напр Скр Прв ур.ст ур.м изм
22:00 +13.5° Ю 1 - более 50 км - преимущественно облачно 746 764 +0.4 89% +11.8° 600 м - - - -
19:00 +16° Ю 4 - более 50 км - облачно с прояснениями 746 763 -0.2 80% +12.6° 1.5 км 0 - - -
16:00 +19.6° Ю 3 - более 50 км - облачно с прояснениями 746 763 -1.1 68% +13.6° 1.5 км - - - -
13:00 +18.5° Ю 4 - более 50 км - переменная облачность 747 765 -0.8 72% +13.3° 1.5 км - - - -
10:00 +15.4° Ю,Ю-В 2 - более 50 км - преимущественно облачно 748 765 -0.2 85% +12.9° 600 м - - - -
07:00 +13.8° штиль 0 - более 50 км - облачно 748 766 +0.2 92% +12.5° 600 м 0 Сухая (без трещин) +14° -
04:00 +12.8° Ю 1 - более 50 км - облачно 748 766 +0.2 97% +12.4° 600 м - - - -
01:00 +13.2° В,Ю-В 1 - более 50 км - переменная облачность 748 765 +0.3 96% +12.5° 1.5 км - - - -
Вторник, 15 Августа
Время местн. Темп Ветер Видим Явления Облачность нижн/средн/верх Атм. давл. Влжн Точка росы ВНГО R Сост. почвы Tg s
Напр Скр Прв ур.ст ур.м изм
22:00 +15.8° Ю 1 - более 50 км - переменная облачность 747 765 +0.7 86% +13.5° 1.5 км - - - -